createdAt,value
2018-11-03T00:01:02.457Z,3.98
2018-11-03T00:02:06.954Z,3.98
2018-11-03T00:03:14.059Z,3.98
2018-11-03T00:04:20.076Z,3.97
2018-11-03T00:05:25.513Z,3.88
2018-11-03T00:06:31.309Z,3.86
2018-11-03T00:07:36.151Z,3.88
2018-11-03T00:08:41.944Z,3.83
2018-11-03T00:09:49.754Z,3.69
2018-11-03T00:10:55.454Z,3.59
2018-11-03T00:12:01.433Z,3.58
2018-11-03T00:13:09.595Z,3.52
2018-11-03T00:14:15.577Z,3.48
2018-11-03T00:15:21.430Z,3.49
2018-11-03T00:16:32.667Z,3.42
2018-11-03T00:17:38.678Z,3.44
2018-11-03T00:18:43.686Z,3.47
2018-11-03T00:19:48.539Z,3.49
2018-11-03T00:20:55.764Z,3.51
2018-11-03T00:22:00.242Z,3.56
2018-11-03T00:23:08.665Z,3.56
2018-11-03T00:24:13.120Z,3.53
2018-11-03T00:25:19.101Z,3.53
2018-11-03T00:26:25.315Z,3.54
2018-11-03T00:27:29.859Z,3.54
2018-11-03T00:28:35.791Z,3.53
2018-11-03T00:29:40.559Z,3.54
2018-11-03T00:30:46.101Z,3.50
2018-11-03T00:31:50.904Z,3.51
2018-11-03T00:32:56.642Z,3.54
2018-11-03T00:34:01.359Z,3.51
2018-11-03T00:35:05.816Z,3.50
2018-11-03T00:36:12.638Z,3.47
2018-11-03T00:37:17.118Z,3.44
2018-11-03T00:38:24.110Z,3.42
2018-11-03T00:39:31.561Z,3.41
2018-11-03T00:40:36.287Z,3.46
2018-11-03T00:41:42.127Z,3.45
2018-11-03T00:42:48.095Z,3.42
2018-11-03T00:43:52.526Z,3.37
2018-11-03T00:44:57.027Z,3.27
2018-11-03T00:46:03.397Z,3.18
2018-11-03T00:47:13.969Z,3.17
2018-11-03T00:48:19.262Z,3.16
2018-11-03T00:49:24.216Z,3.16
2018-11-03T00:50:33.594Z,3.19
2018-11-03T00:51:39.880Z,3.20
2018-11-03T00:52:46.109Z,3.19
2018-11-03T00:53:51.242Z,3.20
2018-11-03T00:54:55.992Z,3.18
2018-11-03T00:56:01.604Z,3.16
2018-11-03T00:57:07.110Z,3.15
2018-11-03T00:58:11.645Z,3.14
2018-11-03T00:59:16.286Z,3.10
2018-11-03T01:00:23.584Z,3.04
2018-11-03T01:01:28.168Z,2.95
2018-11-03T01:02:34.195Z,2.86
2018-11-03T01:03:38.717Z,2.77
2018-11-03T01:04:43.492Z,2.67
2018-11-03T01:05:48.189Z,2.62
2018-11-03T01:06:55.426Z,2.62
2018-11-03T01:08:03.345Z,2.60
2018-11-03T01:09:09.344Z,2.57
2018-11-03T01:10:13.841Z,2.55
2018-11-03T01:11:18.304Z,2.56
2018-11-03T01:12:22.751Z,2.58
2018-11-03T01:13:31.609Z,2.61
2018-11-03T01:14:36.910Z,2.59
2018-11-03T01:15:42.285Z,2.64
2018-11-03T01:16:46.749Z,2.69
2018-11-03T01:17:51.164Z,2.77
2018-11-03T01:18:55.641Z,2.79
2018-11-03T01:20:00.161Z,2.83
2018-11-03T01:21:05.166Z,2.89
2018-11-03T01:22:09.909Z,2.94
2018-11-03T01:23:14.387Z,2.94
2018-11-03T01:24:19.500Z,2.99
2018-11-03T01:25:23.959Z,3.04
2018-11-03T01:26:29.098Z,3.01
2018-11-03T01:27:33.894Z,3.05
2018-11-03T01:28:38.819Z,3.04
2018-11-03T01:29:44.442Z,3.02
2018-11-03T01:30:50.106Z,2.98
2018-11-03T01:31:54.595Z,2.94
2018-11-03T01:32:59.072Z,2.91
2018-11-03T01:34:04.094Z,2.92
2018-11-03T01:35:09.884Z,2.96
2018-11-03T01:36:14.978Z,3.02
2018-11-03T01:37:19.432Z,3.07
2018-11-03T01:38:24.444Z,3.11
2018-11-03T01:39:29.573Z,3.14
2018-11-03T01:40:35.289Z,3.00
2018-11-03T01:41:40.109Z,2.85
2018-11-03T01:42:45.841Z,2.70
2018-11-03T01:43:50.937Z,2.58
2018-11-03T01:44:55.512Z,2.49
2018-11-03T01:46:02.402Z,2.45
2018-11-03T01:47:13.588Z,2.40
2018-11-03T01:48:18.102Z,2.42
2018-11-03T01:49:22.579Z,2.49
2018-11-03T01:50:27.020Z,2.56
2018-11-03T01:51:31.480Z,2.61
2018-11-03T01:52:37.184Z,2.62
2018-11-03T01:53:42.990Z,2.56
2018-11-03T01:54:47.960Z,2.57
2018-11-03T01:55:52.909Z,2.61
2018-11-03T01:56:58.516Z,2.53
2018-11-03T01:59:26.229Z,2.55
2018-11-03T02:00:30.679Z,2.61
2018-11-03T02:01:35.917Z,2.63
2018-11-03T02:02:41.701Z,2.69
2018-11-03T02:03:46.437Z,2.76
2018-11-03T02:04:50.993Z,2.76
2018-11-03T02:05:55.999Z,2.71
2018-11-03T02:07:00.453Z,2.63
2018-11-03T02:08:06.005Z,2.61
2018-11-03T02:09:11.931Z,2.59
2018-11-03T02:10:16.416Z,2.59
2018-11-03T02:11:20.845Z,2.61
2018-11-03T02:12:30.792Z,2.65
2018-11-03T02:13:35.241Z,2.71
2018-11-03T02:14:39.681Z,2.72
2018-11-03T02:15:44.116Z,2.65
2018-11-03T02:16:48.561Z,2.64
2018-11-03T02:17:54.832Z,2.60
2018-11-03T02:18:59.930Z,2.44
2018-11-03T02:20:05.331Z,2.25
2018-11-03T02:21:10.827Z,2.22
2018-11-03T02:22:16.045Z,2.16
2018-11-03T02:23:20.948Z,2.11
2018-11-03T02:24:25.676Z,2.05
2018-11-03T02:25:30.967Z,2.06
2018-11-03T02:26:36.051Z,2.11
2018-11-03T02:27:40.768Z,2.21
2018-11-03T02:28:45.852Z,2.31
2018-11-03T02:29:50.353Z,2.35
2018-11-03T02:30:55.199Z,2.41
2018-11-03T02:32:00.194Z,2.48
2018-11-03T02:33:05.380Z,2.50
2018-11-03T02:34:10.022Z,2.53
2018-11-03T02:35:14.509Z,2.58
2018-11-03T02:36:19.692Z,2.59
2018-11-03T02:37:25.391Z,2.61
2018-11-03T02:38:30.364Z,2.64
2018-11-03T02:39:35.443Z,2.62
2018-11-03T02:40:42.128Z,2.66
2018-11-03T02:41:46.625Z,2.64
2018-11-03T02:42:51.461Z,2.49
2018-11-03T02:43:56.391Z,2.36
2018-11-03T02:45:01.284Z,2.35
2018-11-03T02:46:06.133Z,2.29
2018-11-03T02:47:10.718Z,2.26
2018-11-03T02:48:15.242Z,2.29
2018-11-03T02:49:19.757Z,2.24
2018-11-03T02:50:24.368Z,2.10
2018-11-03T02:51:29.472Z,2.10
2018-11-03T02:52:34.348Z,2.10
2018-11-03T02:53:38.886Z,2.18
2018-11-03T02:54:44.149Z,2.21
2018-11-03T02:55:48.631Z,2.16
2018-11-03T02:56:53.108Z,2.15
2018-11-03T02:57:58.019Z,2.10
2018-11-03T02:59:02.536Z,2.06
2018-11-03T03:00:07.378Z,2.06
2018-11-03T03:01:11.970Z,1.97
2018-11-03T03:02:16.454Z,1.98
2018-11-03T03:03:20.944Z,2.05
2018-11-03T03:04:26.066Z,2.12
2018-11-03T03:05:30.515Z,2.19
2018-11-03T03:06:36.709Z,2.12
2018-11-03T03:07:43.833Z,2.01
2018-11-03T03:08:48.307Z,1.89
2018-11-03T03:09:53.468Z,1.92
2018-11-03T03:10:59.295Z,1.97
2018-11-03T03:12:03.852Z,1.92
2018-11-03T03:13:08.408Z,1.95
2018-11-03T03:14:13.167Z,1.88
2018-11-03T03:15:17.645Z,1.77
2018-11-03T03:16:22.120Z,1.75
2018-11-03T03:17:27.248Z,1.78
2018-11-03T03:18:31.721Z,1.78
2018-11-03T03:19:37.401Z,1.79
2018-11-03T03:20:41.915Z,1.84
2018-11-03T03:21:46.410Z,1.77
2018-11-03T03:22:50.901Z,1.79
2018-11-03T03:23:55.681Z,1.84
2018-11-03T03:25:00.137Z,1.92
2018-11-03T03:26:06.931Z,1.97
2018-11-03T03:27:11.419Z,2.02
2018-11-03T03:28:15.880Z,1.99
2018-11-03T03:29:20.420Z,1.95
2018-11-03T03:30:25.229Z,1.97
2018-11-03T03:31:29.726Z,1.91
2018-11-03T03:32:34.186Z,1.77
2018-11-03T03:33:38.641Z,1.72
2018-11-03T03:34:43.133Z,1.64
2018-11-03T03:35:48.310Z,1.52
2018-11-03T03:36:53.688Z,1.47
2018-11-03T03:37:59.429Z,1.50
2018-11-03T03:39:06.792Z,1.60
2018-11-03T03:40:13.234Z,1.67
2018-11-03T03:41:17.753Z,1.71
2018-11-03T03:42:22.856Z,1.74
2018-11-03T03:43:27.659Z,1.77
2018-11-03T03:44:33.443Z,1.80
2018-11-03T03:45:38.585Z,1.83
2018-11-03T03:46:44.104Z,1.88
2018-11-03T03:47:50.297Z,1.92
2018-11-03T03:48:55.843Z,1.98
2018-11-03T03:50:01.435Z,1.97
2018-11-03T03:51:06.237Z,1.98
2018-11-03T03:52:12.203Z,1.92
2018-11-03T03:53:17.987Z,1.87
2018-11-03T03:54:24.099Z,1.86
2018-11-03T03:55:29.135Z,1.84
2018-11-03T03:56:34.085Z,1.86
2018-11-03T03:57:39.094Z,1.92
2018-11-03T03:58:44.903Z,1.95
2018-11-03T03:59:49.921Z,1.96
2018-11-03T04:00:55.685Z,1.94
2018-11-03T04:02:01.553Z,1.95
2018-11-03T04:03:07.154Z,1.93
2018-11-03T04:04:12.777Z,1.90
2018-11-03T04:05:19.852Z,1.86
2018-11-03T04:06:25.336Z,1.75
2018-11-03T04:07:30.810Z,1.74
2018-11-03T04:08:39.942Z,1.70
2018-11-03T04:09:44.403Z,1.57
2018-11-03T04:10:48.889Z,1.48
2018-11-03T04:11:53.345Z,1.37
2018-11-03T04:12:58.190Z,1.31
2018-11-03T04:14:02.986Z,1.26
2018-11-03T04:15:08.213Z,1.18
2018-11-03T04:16:13.684Z,1.06
2018-11-03T04:17:18.247Z,1.00
2018-11-03T04:18:22.755Z,0.87
2018-11-03T04:19:28.980Z,0.85
2018-11-03T04:20:33.486Z,0.79
2018-11-03T04:21:38.024Z,0.75
2018-11-03T04:22:42.620Z,0.70
2018-11-03T04:23:47.921Z,0.72
2018-11-03T04:24:53.404Z,0.70
2018-11-03T04:25:58.801Z,0.69
2018-11-03T04:27:03.702Z,0.77
2018-11-03T04:28:10.080Z,0.84
2018-11-03T04:29:16.717Z,0.90
2018-11-03T04:30:25.002Z,0.88
2018-11-03T04:31:29.497Z,0.91
2018-11-03T04:32:34.266Z,0.95
2018-11-03T04:34:52.381Z,0.97
2018-11-03T04:35:59.951Z,1.00
2018-11-03T04:37:04.433Z,1.06
2018-11-03T04:38:08.895Z,1.05
2018-11-03T04:39:14.083Z,1.13
2018-11-03T04:40:18.545Z,1.17
2018-11-03T04:41:24.253Z,1.20
2018-11-03T04:42:28.820Z,1.18
2018-11-03T04:43:33.252Z,1.17
2018-11-03T04:44:37.766Z,1.23
2018-11-03T04:45:42.497Z,1.26
2018-11-03T04:46:47.226Z,1.20
2018-11-03T04:47:51.689Z,1.19
2018-11-03T04:49:01.281Z,1.04
2018-11-03T04:50:06.085Z,0.79
2018-11-03T04:51:10.624Z,0.73
2018-11-03T04:52:15.421Z,0.71
2018-11-03T04:53:20.424Z,0.61
2018-11-03T04:54:25.349Z,0.57
2018-11-03T04:55:29.835Z,0.57
2018-11-03T04:56:34.463Z,0.69
2018-11-03T04:57:39.395Z,0.81
2018-11-03T04:58:45.434Z,0.94
2018-11-03T04:59:50.081Z,1.05
2018-11-03T05:00:54.682Z,1.10
2018-11-03T05:01:59.157Z,1.14
2018-11-03T05:03:03.655Z,1.14
2018-11-03T05:04:08.128Z,1.09
2018-11-03T05:05:12.941Z,1.10
2018-11-03T05:06:17.432Z,1.05
2018-11-03T05:07:21.941Z,0.99
2018-11-03T05:08:26.820Z,1.03
2018-11-03T05:09:31.289Z,1.06
2018-11-03T05:10:35.885Z,1.10
2018-11-03T05:11:41.601Z,1.12
2018-11-03T05:12:46.681Z,1.10
2018-11-03T05:13:51.846Z,1.00
2018-11-03T05:14:56.322Z,1.01
2018-11-03T05:16:00.798Z,0.97
2018-11-03T05:17:05.589Z,0.78
2018-11-03T05:18:10.091Z,0.71
2018-11-03T05:19:14.537Z,0.69
2018-11-03T05:20:19.131Z,0.75
2018-11-03T05:21:24.343Z,0.78
2018-11-03T05:22:28.819Z,0.85
2018-11-03T05:23:36.332Z,0.85
2018-11-03T05:24:41.208Z,0.76
2018-11-03T05:25:45.768Z,0.65
2018-11-03T05:26:50.265Z,0.47
2018-11-03T05:27:54.732Z,0.41
2018-11-03T05:28:59.260Z,0.37
2018-11-03T05:30:04.328Z,0.47
2018-11-03T05:31:08.794Z,0.47
2018-11-03T05:32:13.324Z,0.49
2018-11-03T05:33:17.810Z,0.45
2018-11-03T05:34:26.360Z,0.33
2018-11-03T05:35:30.863Z,0.33
2018-11-03T05:36:35.810Z,0.30
2018-11-03T05:37:40.251Z,0.26
2018-11-03T05:38:44.783Z,0.16
2018-11-03T05:39:51.257Z,0.10
2018-11-03T05:40:56.385Z,0.08
2018-11-03T05:42:01.642Z,0.14
2018-11-03T05:43:06.395Z,0.17
2018-11-03T05:44:10.936Z,0.20
2018-11-03T05:45:16.614Z,0.28
2018-11-03T05:46:21.188Z,0.34
2018-11-03T05:47:25.674Z,0.32
2018-11-03T05:48:30.498Z,0.31
2018-11-03T05:49:35.274Z,0.36
2018-11-03T05:50:39.796Z,0.45
2018-11-03T05:51:44.330Z,0.50
2018-11-03T05:52:54.070Z,0.60
2018-11-03T05:53:58.553Z,0.66
2018-11-03T05:55:03.832Z,0.68
2018-11-03T05:56:08.579Z,0.60
2018-11-03T05:57:17.749Z,0.48
2018-11-03T05:58:22.261Z,0.42
2018-11-03T05:59:26.727Z,0.43
2018-11-03T06:00:31.259Z,0.50
2018-11-03T06:01:35.798Z,0.59
2018-11-03T06:02:40.640Z,0.64
2018-11-03T06:03:45.269Z,0.58
2018-11-03T06:04:50.149Z,0.51
2018-11-03T06:05:54.973Z,0.50
2018-11-03T06:06:59.473Z,0.45
2018-11-03T06:08:04.161Z,0.39
2018-11-03T06:09:13.365Z,0.40
2018-11-03T06:10:18.819Z,0.41
2018-11-03T06:11:24.822Z,0.45
2018-11-03T06:12:33.396Z,0.50
2018-11-03T06:13:56.203Z,0.55
2018-11-03T06:15:00.982Z,0.50
2018-11-03T06:16:05.508Z,0.53
2018-11-03T06:17:10.179Z,0.60
2018-11-03T06:18:15.269Z,0.70
2018-11-03T06:19:20.740Z,0.75
2018-11-03T06:20:25.398Z,0.82
2018-11-03T06:21:30.740Z,0.85
2018-11-03T06:22:42.465Z,0.74
2018-11-03T06:23:47.777Z,0.62
2018-11-03T06:24:52.891Z,0.48
2018-11-03T06:25:57.877Z,0.46
2018-11-03T06:27:02.604Z,0.45
2018-11-03T06:28:08.164Z,0.43
2018-11-03T06:29:13.806Z,0.45
2018-11-03T06:43:57.416Z,0.44
2018-11-03T06:45:05.109Z,0.44
2018-11-03T06:46:09.642Z,0.51
2018-11-03T06:47:14.138Z,0.41
2018-11-03T06:48:18.654Z,0.46
2018-11-03T06:49:24.969Z,0.37
2018-11-03T06:50:30.575Z,0.35
2018-11-03T06:51:37.139Z,0.35
2018-11-03T06:52:44.794Z,0.27
2018-11-03T06:53:49.817Z,0.26
2018-11-03T06:54:54.429Z,0.28
2018-11-03T06:55:59.296Z,0.33
2018-11-03T06:57:04.523Z,0.34
2018-11-03T06:58:09.012Z,0.31
2018-11-03T06:59:14.568Z,0.22
2018-11-03T07:00:19.218Z,0.19
2018-11-03T07:06:57.354Z,0.18
2018-11-03T07:08:02.911Z,0.19
2018-11-03T07:09:08.880Z,0.25
2018-11-03T07:10:13.408Z,0.29
2018-11-03T07:11:19.139Z,0.33
2018-11-03T07:12:23.832Z,0.29
2018-11-03T07:13:28.814Z,0.06
2018-11-03T07:14:33.409Z,-0.07
2018-11-03T07:15:38.829Z,-0.08
2018-11-03T07:18:11.650Z,-0.06
2018-11-03T07:19:16.153Z,-0.10
2018-11-03T07:20:21.305Z,-0.18
2018-11-03T07:21:25.826Z,-0.23
2018-11-03T07:22:31.725Z,-0.23
2018-11-03T07:23:37.185Z,-0.23
2018-11-03T07:24:48.166Z,-0.08
2018-11-03T07:25:53.660Z,0.06
2018-11-03T07:26:59.225Z,0.20
2018-11-03T07:28:09.244Z,0.37
2018-11-03T07:29:13.756Z,0.51
2018-11-03T07:30:20.097Z,0.65
2018-11-03T07:31:24.779Z,0.63
2018-11-03T07:32:30.602Z,0.47
2018-11-03T07:33:36.404Z,0.37
2018-11-03T07:34:42.049Z,0.22
2018-11-03T07:35:48.429Z,0.20
2018-11-03T07:36:55.358Z,0.29
2018-11-03T07:38:04.580Z,0.39
2018-11-03T07:39:09.591Z,0.34
2018-11-03T07:40:14.345Z,0.32
2018-11-03T07:41:21.256Z,0.27
2018-11-03T07:42:25.851Z,0.26
2018-11-03T07:43:30.821Z,0.22
2018-11-03T07:44:36.187Z,0.18
2018-11-03T07:45:42.284Z,0.11
2018-11-03T07:46:47.550Z,0.19
2018-11-03T07:47:52.931Z,0.31
2018-11-03T07:49:00.361Z,0.32
2018-11-03T07:50:07.486Z,0.35
2018-11-03T07:51:13.532Z,0.37
2018-11-03T07:52:19.821Z,0.41
2018-11-03T07:53:26.094Z,0.44
2018-11-03T07:54:31.010Z,0.50
2018-11-03T07:55:37.020Z,0.67
2018-11-03T07:56:43.134Z,0.73
2018-11-03T07:57:48.846Z,0.79
2018-11-03T07:58:53.487Z,0.86
2018-11-03T07:59:58.666Z,1.03
2018-11-03T08:01:04.326Z,1.28
2018-11-03T08:02:09.901Z,1.30
2018-11-03T08:03:15.860Z,1.40
2018-11-03T08:04:28.273Z,1.44
2018-11-03T08:05:33.102Z,1.47
2018-11-03T08:06:38.280Z,1.61
2018-11-03T08:07:43.020Z,1.70
2018-11-03T08:08:47.537Z,1.87
2018-11-03T08:09:52.648Z,1.99
2018-11-03T08:10:58.116Z,2.08
2018-11-03T08:12:04.453Z,1.98
2018-11-03T08:13:13.023Z,1.89
2018-11-03T08:14:21.407Z,1.97
2018-11-03T08:15:26.722Z,1.81
2018-11-03T08:16:31.253Z,1.57
2018-11-03T08:17:37.349Z,1.43
2018-11-03T08:18:41.808Z,1.21
2018-11-03T08:19:46.960Z,1.18
2018-11-03T08:20:56.125Z,1.04
2018-11-03T08:22:00.608Z,1.01
2018-11-03T08:23:05.586Z,1.19
2018-11-03T08:24:12.828Z,1.45
2018-11-03T08:25:18.328Z,1.58
2018-11-03T08:26:23.297Z,1.54
2018-11-03T08:27:28.893Z,1.62
2018-11-03T08:28:34.380Z,1.75
2018-11-03T08:29:40.075Z,2.00
2018-11-03T08:30:45.406Z,2.24
2018-11-03T08:31:49.939Z,2.32
2018-11-03T08:32:57.001Z,2.46
2018-11-03T08:34:02.957Z,2.65
2018-11-03T08:35:09.360Z,2.72
2018-11-03T08:36:14.286Z,2.82
2018-11-03T08:37:20.571Z,2.99
2018-11-03T08:38:36.724Z,3.11
2018-11-03T08:39:41.660Z,3.17
2018-11-03T08:40:47.260Z,3.14
2018-11-03T08:41:53.234Z,3.03
2018-11-03T08:42:59.348Z,3.17
2018-11-03T08:44:04.620Z,3.32
2018-11-03T08:45:11.937Z,3.47
2018-11-03T08:46:16.722Z,3.38
2018-11-03T08:47:26.818Z,2.92
2018-11-03T08:48:32.370Z,2.41
2018-11-03T08:49:39.135Z,2.29
2018-11-03T08:50:45.614Z,2.30
2018-11-03T08:51:50.934Z,2.26
2018-11-03T08:52:57.090Z,2.27
2018-11-03T08:54:03.246Z,2.30
2018-11-03T08:55:09.388Z,2.37
2018-11-03T08:56:17.650Z,2.36
2018-11-03T08:57:24.421Z,2.39
2018-11-03T08:58:30.590Z,2.48
2018-11-03T09:01:12.013Z,2.52
2018-11-03T09:02:23.531Z,2.24
2018-11-03T09:03:30.486Z,2.23
2018-11-03T09:04:35.295Z,2.27
2018-11-03T09:05:41.429Z,2.21
2018-11-03T09:06:48.093Z,2.09
2018-11-03T09:08:31.125Z,1.91
2018-11-03T09:09:40.184Z,1.89
2018-11-03T09:10:47.542Z,2.01
2018-11-03T09:11:55.669Z,2.14
2018-11-03T09:13:04.111Z,2.22
2018-11-03T09:14:09.121Z,1.92
2018-11-03T09:15:15.599Z,1.97
2018-11-03T09:21:27.147Z,1.99
2018-11-03T09:22:34.904Z,2.92
2018-11-03T09:23:40.250Z,3.18
2018-11-03T09:24:47.776Z,3.30
2018-11-03T09:25:53.259Z,3.31
2018-11-03T09:26:59.761Z,3.67
2018-11-03T09:28:11.113Z,4.11
2018-11-03T09:29:16.563Z,4.53
2018-11-03T09:32:18.553Z,6.11
2018-11-03T09:33:24.730Z,7.14
2018-11-03T09:34:30.644Z,8.38
2018-11-03T09:35:39.712Z,9.62
2018-11-03T09:36:45.783Z,10.40
2018-11-03T09:37:51.280Z,10.67
2018-11-03T09:38:56.328Z,11.15
2018-11-03T09:40:01.575Z,10.95
2018-11-03T09:41:08.765Z,11.10
2018-11-03T09:43:37.008Z,11.72
2018-11-03T09:44:43.623Z,12.31
2018-11-03T09:45:48.572Z,13.55
2018-11-03T09:46:54.881Z,13.37
2018-11-03T09:48:04.659Z,12.08
2018-11-03T09:49:12.325Z,11.08
2018-11-03T09:50:19.477Z,10.70
2018-11-03T09:51:28.752Z,9.89
2018-11-03T09:52:42.749Z,9.26
2018-11-03T09:53:50.834Z,8.46
2018-11-03T09:55:02.344Z,8.70
2018-11-03T09:56:06.889Z,8.46
2018-11-03T09:57:12.848Z,8.45
2018-11-03T09:58:20.140Z,9.25
2018-11-03T09:59:27.262Z,9.45
2018-11-03T10:00:33.660Z,9.68
2018-11-03T10:01:38.275Z,10.00
2018-11-03T10:02:44.390Z,10.29
2018-11-03T10:03:50.974Z,10.39
2018-11-03T10:04:58.084Z,11.57
2018-11-03T10:06:06.689Z,12.34
2018-11-03T10:08:33.505Z,13.87
2018-11-03T10:09:40.288Z,13.86
2018-11-03T10:10:45.578Z,13.32
2018-11-03T10:11:51.982Z,12.23
2018-11-03T10:12:57.489Z,11.26
2018-11-03T10:14:02.976Z,10.58
2018-11-03T10:15:09.801Z,9.90
2018-11-03T10:16:15.806Z,9.89
2018-11-03T10:17:24.537Z,9.39
2018-11-03T10:19:43.277Z,8.86
2018-11-03T10:20:50.211Z,8.71
2018-11-03T10:21:56.357Z,8.80
2018-11-03T10:23:02.793Z,9.12
2018-11-03T10:24:10.408Z,9.41
2018-11-03T10:25:19.934Z,10.26
2018-11-03T10:26:26.328Z,11.76
2018-11-03T10:27:32.157Z,12.55
2018-11-03T10:28:40.352Z,13.01
2018-11-03T10:29:50.144Z,13.59
2018-11-03T10:30:57.384Z,14.87
2018-11-03T10:32:04.716Z,14.08
2018-11-03T10:33:15.521Z,14.14
2018-11-03T10:34:27.990Z,15.54
2018-11-03T10:35:39.755Z,16.08
2018-11-03T10:36:52.259Z,16.06
2018-11-03T10:38:06.823Z,16.35
2018-11-03T10:39:15.137Z,16.26
2018-11-03T10:40:23.622Z,16.64
2018-11-03T10:41:31.253Z,16.24
2018-11-03T10:42:45.108Z,15.86
2018-11-03T10:43:58.175Z,14.85
2018-11-03T10:45:09.553Z,14.26
2018-11-03T10:46:24.039Z,14.02
2018-11-03T10:47:37.133Z,13.91
2018-11-03T10:48:45.266Z,13.83
2018-11-03T10:49:52.142Z,13.60
2018-11-03T10:50:59.931Z,13.63
2018-11-03T10:52:07.666Z,14.13
2018-11-03T10:53:13.777Z,14.44
2018-11-03T10:54:18.916Z,15.19
2018-11-03T10:55:27.597Z,15.38
2018-11-03T10:56:33.206Z,15.07
2018-11-03T10:57:46.317Z,14.26
2018-11-03T10:58:54.476Z,13.18
2018-11-03T11:00:00.050Z,13.09
2018-11-03T11:01:11.233Z,13.85
2018-11-03T11:02:23.632Z,14.29
2018-11-03T11:03:34.250Z,13.24
2018-11-03T11:04:44.911Z,14.75
2018-11-03T11:06:41.069Z,12.13
2018-11-03T11:07:50.837Z,14.31
2018-11-03T11:09:08.210Z,14.59
2018-11-03T11:10:21.191Z,13.47
2018-11-03T11:11:35.027Z,12.79
2018-11-03T11:12:44.260Z,12.96
2018-11-03T11:13:51.835Z,13.50
2018-11-03T11:14:56.906Z,13.74
2018-11-03T11:16:02.103Z,14.59
2018-11-03T11:17:07.934Z,14.83
2018-11-03T11:18:13.140Z,15.28
2018-11-03T11:19:20.451Z,15.28
2018-11-03T11:20:26.605Z,15.21
2018-11-03T11:21:32.418Z,15.57
2018-11-03T11:22:41.353Z,15.27
2018-11-03T11:23:47.075Z,15.54
2018-11-03T11:24:52.445Z,15.70
2018-11-03T11:25:57.267Z,15.17
2018-11-03T11:27:01.889Z,14.80
2018-11-03T11:28:07.600Z,14.85
2018-11-03T11:29:13.906Z,15.81
2018-11-03T11:43:10.561Z,16.37
2018-11-03T11:44:15.455Z,16.43
2018-11-03T11:45:22.675Z,16.37
2018-11-03T11:46:29.786Z,16.27
2018-11-03T11:47:35.995Z,16.47
2018-11-03T11:48:41.861Z,16.51
2018-11-03T11:49:47.433Z,16.29
2018-11-03T11:50:52.324Z,15.72
2018-11-03T11:53:06.344Z,15.67
2018-11-03T11:54:15.146Z,15.05
2018-11-03T11:55:23.113Z,13.62
2018-11-03T11:56:29.763Z,13.25
2018-11-03T11:57:38.415Z,13.61
2018-11-03T11:58:44.598Z,14.17
2018-11-03T11:59:52.279Z,14.90
2018-11-03T12:00:58.712Z,14.90
2018-11-03T12:02:04.430Z,15.19
2018-11-03T12:03:09.722Z,15.46
2018-11-03T12:04:16.408Z,14.65
2018-11-03T12:11:33.570Z,14.64
2018-11-03T12:12:40.494Z,15.51
2018-11-03T12:13:47.895Z,14.95
2018-11-03T12:14:56.423Z,14.35
2018-11-03T12:16:02.151Z,14.29
2018-11-03T12:17:08.605Z,15.09
2018-11-03T12:18:20.493Z,15.78
2018-11-03T12:19:28.356Z,16.55
2018-11-03T12:20:34.884Z,17.32
2018-11-03T12:21:40.368Z,18.35
2018-11-03T12:22:47.383Z,19.27
2018-11-03T12:23:53.441Z,20.05
2018-11-03T12:25:00.049Z,19.44
2018-11-03T12:26:11.406Z,17.88
2018-11-03T12:27:16.514Z,18.66
2018-11-03T12:28:21.232Z,19.71
2018-11-03T12:29:29.749Z,20.27
2018-11-03T12:30:40.500Z,19.08
2018-11-03T12:31:48.203Z,17.25
2018-11-03T12:32:53.620Z,16.62
2018-11-03T12:33:59.343Z,15.60
2018-11-03T12:35:04.835Z,15.21
2018-11-03T12:36:10.186Z,14.73
2018-11-03T12:37:15.748Z,14.81
2018-11-03T12:38:21.037Z,14.65
2018-11-03T12:39:27.970Z,14.98
2018-11-03T12:40:35.019Z,15.21
2018-11-03T12:41:41.400Z,15.61
2018-11-03T12:42:46.738Z,16.81
2018-11-03T12:43:52.808Z,15.77
2018-11-03T12:44:57.732Z,15.78
2018-11-03T12:47:24.407Z,16.85
2018-11-03T12:48:31.365Z,16.72
2018-11-03T12:49:41.638Z,16.40
2018-11-03T12:50:49.851Z,16.04
2018-11-03T12:51:56.762Z,15.21
2018-11-03T12:53:09.089Z,15.24
2018-11-03T12:54:30.152Z,14.74
2018-11-03T12:55:36.480Z,14.85
2018-11-03T12:57:53.560Z,14.22
2018-11-03T12:58:59.983Z,13.52
2018-11-03T13:00:04.826Z,13.46
2018-11-03T13:01:12.399Z,14.00
2018-11-03T13:02:19.038Z,14.93
2018-11-03T13:03:24.629Z,14.97
2018-11-03T13:04:29.166Z,14.56
2018-11-03T13:05:36.267Z,14.62
2018-11-03T13:06:42.471Z,14.94
2018-11-03T13:07:48.706Z,15.12
2018-11-03T13:08:54.899Z,15.03
2018-11-03T13:10:04.651Z,14.08
2018-11-03T13:11:21.492Z,13.81
2018-11-03T13:12:30.565Z,15.06
2018-11-03T13:13:37.604Z,15.15
2018-11-03T13:14:43.279Z,14.73
2018-11-03T13:15:49.759Z,14.64
2018-11-03T13:16:56.483Z,14.35
2018-11-03T13:18:01.738Z,15.10
2018-11-03T13:19:13.740Z,15.12
2018-11-03T13:20:34.041Z,15.84
2018-11-03T13:21:42.977Z,15.92
2018-11-03T13:22:48.430Z,15.26
2018-11-03T13:23:54.902Z,14.60
2018-11-03T13:25:01.125Z,14.76
2018-11-03T13:26:07.579Z,15.24
2018-11-03T13:27:16.124Z,15.49
2018-11-03T13:28:23.837Z,14.75
2018-11-03T13:29:33.278Z,14.97
2018-11-03T13:30:40.775Z,14.62
2018-11-03T13:31:46.366Z,14.48
2018-11-03T13:32:51.473Z,14.28
2018-11-03T13:34:07.487Z,14.34
2018-11-03T13:35:13.519Z,13.69
2018-11-03T13:36:20.006Z,13.39
2018-11-03T13:37:25.396Z,13.33
2018-11-03T13:38:31.180Z,13.22
2018-11-03T13:39:35.984Z,12.98
2018-11-03T13:41:53.289Z,13.16
2018-11-03T13:43:02.500Z,13.70
2018-11-03T13:44:10.765Z,14.02
2018-11-03T13:45:15.371Z,14.00
2018-11-03T13:46:21.370Z,14.51
2018-11-03T13:47:26.545Z,15.08
2018-11-03T13:48:31.283Z,15.32
2018-11-03T13:49:39.687Z,15.57
2018-11-03T13:50:44.891Z,15.24
2018-11-03T13:51:50.558Z,14.25
2018-11-03T13:52:55.038Z,14.34
2018-11-03T13:53:59.656Z,14.86
2018-11-03T14:01:24.703Z,15.20
2018-11-03T14:02:29.619Z,14.30
2018-11-03T14:03:42.308Z,14.75
2018-11-03T14:04:48.088Z,14.75
2018-11-03T14:05:53.597Z,15.04
2018-11-03T14:08:20.045Z,15.01
2018-11-03T14:09:26.541Z,15.09
2018-11-03T14:11:53.753Z,15.53
2018-11-03T14:12:59.330Z,15.23
2018-11-03T14:14:04.128Z,14.94
2018-11-03T14:15:10.576Z,14.73
2018-11-03T14:16:25.857Z,14.69
2018-11-03T14:17:33.349Z,14.78
2018-11-03T14:18:39.097Z,14.98
2018-11-03T14:19:43.899Z,15.05
2018-11-03T14:20:49.507Z,15.46
2018-11-03T14:21:54.507Z,15.77
2018-11-03T14:22:59.778Z,15.61
2018-11-03T14:24:06.837Z,15.43
2018-11-03T14:25:14.426Z,15.33
2018-11-03T14:26:19.495Z,15.85
2018-11-03T14:27:25.518Z,15.93
2018-11-03T14:28:31.156Z,16.31
2018-11-03T14:29:37.411Z,17.02
2018-11-03T14:30:44.255Z,16.60
2018-11-03T14:31:51.637Z,16.09
2018-11-03T14:32:58.209Z,16.20
2018-11-03T14:34:07.189Z,17.04
2018-11-03T14:35:13.333Z,17.21
2018-11-03T14:36:17.985Z,17.58
2018-11-03T14:37:24.534Z,16.28
2018-11-03T14:38:30.222Z,15.94
2018-11-03T14:39:34.711Z,15.74
2018-11-03T14:40:39.250Z,16.42
2018-11-03T14:41:47.117Z,16.45
2018-11-03T14:42:52.367Z,15.91
2018-11-03T14:43:56.925Z,14.53
2018-11-03T14:45:02.860Z,13.65
2018-11-03T14:46:08.359Z,13.00
2018-11-03T14:47:15.922Z,12.74
2018-11-03T14:48:21.535Z,12.48
2018-11-03T14:49:26.165Z,11.92
2018-11-03T14:50:33.597Z,12.04
2018-11-03T14:51:39.438Z,12.37
2018-11-03T14:52:44.957Z,13.01
2018-11-03T14:53:50.913Z,13.23
2018-11-03T14:54:57.920Z,13.76
2018-11-03T14:56:03.005Z,14.28
2018-11-03T14:57:08.506Z,14.97
2018-11-03T14:58:17.821Z,15.09
2018-11-03T14:59:23.484Z,15.18
2018-11-03T15:00:28.816Z,15.37
2018-11-03T15:01:33.295Z,15.56
2018-11-03T15:02:37.814Z,15.59
2018-11-03T15:03:43.515Z,15.64
2018-11-03T15:04:47.996Z,15.59
2018-11-03T15:05:54.155Z,15.70
2018-11-03T15:06:58.997Z,14.42
2018-11-03T15:09:13.546Z,13.72
2018-11-03T15:10:19.414Z,13.48
2018-11-03T15:11:23.934Z,13.23
2018-11-03T15:12:28.714Z,13.15
2018-11-03T15:13:34.689Z,13.21
2018-11-03T15:14:39.146Z,13.09
2018-11-03T15:15:45.308Z,12.88
2018-11-03T15:16:51.292Z,12.70
2018-11-03T15:17:57.160Z,12.76
2018-11-03T15:19:02.509Z,13.32
2018-11-03T15:20:07.369Z,13.95
2018-11-03T15:21:15.285Z,14.37
2018-11-03T15:22:20.764Z,14.26
2018-11-03T15:23:25.319Z,13.49
2018-11-03T15:24:29.855Z,12.73
2018-11-03T15:25:37.260Z,12.09
2018-11-03T15:26:42.864Z,11.88
2018-11-03T15:27:48.293Z,12.13
2018-11-03T15:28:53.032Z,11.95
2018-11-03T15:29:57.971Z,11.90
2018-11-03T15:31:03.738Z,11.64
2018-11-03T15:32:08.805Z,11.58
2018-11-03T15:33:13.564Z,11.68
2018-11-03T15:34:21.360Z,11.58
2018-11-03T15:35:26.083Z,11.37
2018-11-03T15:36:31.267Z,10.80
2018-11-03T15:37:49.436Z,10.69
2018-11-03T15:38:55.505Z,10.51
2018-11-03T15:40:01.192Z,10.69
2018-11-03T15:41:07.134Z,10.91